Benedito Leite, Brazil
Current Conditions -  °F | °C
As of 3:00 PM on Thursday 27 Nov 2014 (Local Time) from SBTE Reporting Station
Scattered Clouds Scattered Clouds  
Wind Chill: 100°   Ceiling: Unl
Heat Index: 100°   Visibility: 6mi
Dew Point: 57°   Wind: 9mph
Humidity: 24%   Direction: 90°E
Pressure: 29.74"   Gusts: NA
Location:  7.22°S, 44.57°W
Report Text: SBTE 271800Z 09008KT 9999 SCT030 38/14 Q1007
Loading
Personal Weather Stations






























Interactive Weather Map New forecast layout! Learn more

10-Day Weather Forecast

Advertisements
Track Severe Weather on mobile